createdAt,value
2023-02-23T00:00:56.004Z,99445.56
2023-02-23T00:03:23.070Z,99445.56
2023-02-23T00:05:49.866Z,99447.84
2023-02-23T00:08:16.829Z,99443.31
2023-02-23T00:10:43.600Z,99433.19
2023-02-23T00:13:10.533Z,99448.16
2023-02-23T00:15:37.360Z,99442.94
2023-02-23T00:18:05.949Z,99440.06
2023-02-23T00:20:32.936Z,99436.94
2023-02-23T00:22:59.786Z,99436.66
2023-02-23T00:25:26.650Z,99430.47
2023-02-23T00:27:53.679Z,99438.28
2023-02-23T00:30:20.934Z,99435.53
2023-02-23T00:32:51.093Z,99437.38
2023-02-23T00:35:19.745Z,99436.09
2023-02-23T00:37:48.674Z,99435.47
2023-02-23T00:40:18.471Z,99428.63
2023-02-23T00:42:47.285Z,99428.00
2023-02-23T00:45:14.787Z,99421.53
2023-02-23T00:47:44.136Z,99428.19
2023-02-23T00:50:17.970Z,99430.81
2023-02-23T00:52:47.720Z,99423.75
2023-02-23T00:55:15.729Z,99421.81
2023-02-23T00:57:42.735Z,99423.66
2023-02-23T01:00:12.772Z,99419.56
2023-02-23T01:02:39.750Z,99415.34
2023-02-23T01:05:07.273Z,99412.78
2023-02-23T01:07:34.326Z,99419.00
2023-02-23T01:10:02.581Z,99416.69
2023-02-23T01:12:30.122Z,99423.34
2023-02-23T01:14:56.845Z,99423.38
2023-02-23T01:17:23.556Z,99426.28
2023-02-23T01:19:50.384Z,99417.09
2023-02-23T01:22:17.221Z,99416.22
2023-02-23T01:24:45.123Z,99422.81
2023-02-23T01:27:13.489Z,99420.72
2023-02-23T01:29:40.305Z,99422.16
2023-02-23T01:32:07.617Z,99422.34
2023-02-23T01:34:34.493Z,99424.81
2023-02-23T01:37:01.259Z,99423.31
2023-02-23T01:39:29.096Z,99419.56
2023-02-23T01:41:56.705Z,99421.81
2023-02-23T01:45:20.922Z,99420.59
2023-02-23T01:47:51.620Z,99412.03
2023-02-23T01:50:22.814Z,99411.13
2023-02-23T01:52:55.443Z,99413.22
2023-02-23T01:55:26.900Z,99407.81
2023-02-23T01:58:02.495Z,99416.97
2023-02-23T02:00:30.071Z,99415.03
2023-02-23T02:03:01.266Z,99421.41
2023-02-23T02:05:30.177Z,99414.50
2023-02-23T02:07:58.557Z,99418.63
2023-02-23T02:10:28.138Z,99414.63
2023-02-23T02:12:57.471Z,99412.13
2023-02-23T02:15:35.738Z,99407.09
2023-02-23T02:18:17.075Z,99405.84
2023-02-23T02:21:38.818Z,99405.63
2023-02-23T02:24:41.690Z,99409.97
2023-02-23T02:27:33.744Z,99411.78
2023-02-23T02:31:00.822Z,99406.81
2023-02-23T02:34:08.182Z,99408.44
2023-02-23T02:37:10.294Z,99408.69
2023-02-23T02:39:53.764Z,99396.56
2023-02-23T02:42:34.081Z,99398.16
2023-02-23T02:45:11.797Z,99402.28
2023-02-23T02:47:47.672Z,99402.84
2023-02-23T02:50:25.781Z,99408.59
2023-02-23T02:53:02.720Z,99397.97
2023-02-23T02:55:34.213Z,99403.50
2023-02-23T02:58:05.713Z,99399.56
2023-02-23T03:00:38.920Z,99398.28
2023-02-23T03:03:06.099Z,99393.13
2023-02-23T03:05:41.953Z,99402.19
2023-02-23T03:08:22.599Z,99393.09
2023-02-23T03:11:01.988Z,99393.19
2023-02-23T03:13:46.273Z,99392.91
2023-02-23T03:16:26.816Z,99387.22
2023-02-23T03:19:13.450Z,99387.44
2023-02-23T03:21:51.796Z,99393.00
2023-02-23T03:24:34.571Z,99393.84
2023-02-23T03:27:16.971Z,99392.59
2023-02-23T03:29:55.300Z,99394.88
2023-02-23T03:32:30.204Z,99400.44
2023-02-23T03:35:07.358Z,99398.72
2023-02-23T03:37:46.239Z,99395.38
2023-02-23T03:40:23.593Z,99395.44
2023-02-23T03:42:57.489Z,99401.63
2023-02-23T03:45:35.873Z,99397.06
2023-02-23T03:48:10.063Z,99396.88
2023-02-23T03:50:42.980Z,99393.63
2023-02-23T03:53:14.387Z,99392.47
2023-02-23T03:55:51.364Z,99399.66
2023-02-23T03:58:26.181Z,99393.84
2023-02-23T04:00:57.246Z,99404.78
2023-02-23T04:03:29.039Z,99393.03
2023-02-23T04:05:58.210Z,99395.25
2023-02-23T04:08:39.567Z,99395.19
2023-02-23T04:11:20.071Z,99399.13
2023-02-23T04:13:58.803Z,99401.19
2023-02-23T04:16:30.385Z,99410.25
2023-02-23T04:18:58.348Z,99403.44
2023-02-23T04:21:25.446Z,99403.44
2023-02-23T04:23:53.033Z,99404.03
2023-02-23T04:26:21.663Z,99406.94
2023-02-23T04:28:48.952Z,99412.97
2023-02-23T04:31:16.191Z,99409.66
2023-02-23T04:33:45.932Z,99408.44
2023-02-23T04:36:15.094Z,99407.81
2023-02-23T04:38:45.254Z,99420.13
2023-02-23T04:41:12.657Z,99409.94
2023-02-23T04:43:40.999Z,99405.56
2023-02-23T04:46:07.972Z,99408.09
2023-02-23T04:48:35.369Z,99413.28
2023-02-23T04:51:02.365Z,99410.59
2023-02-23T04:53:30.353Z,99416.34
2023-02-23T04:55:57.321Z,99408.25
2023-02-23T04:58:24.614Z,99412.00
2023-02-23T05:00:53.355Z,99414.38
2023-02-23T05:03:25.646Z,99410.16
2023-02-23T05:05:53.050Z,99405.00
2023-02-23T05:08:20.314Z,99411.56
2023-02-23T05:10:47.464Z,99403.69
2023-02-23T05:13:14.336Z,99403.69
2023-02-23T05:15:41.356Z,99404.94
2023-02-23T05:18:09.659Z,99403.44
2023-02-23T05:20:36.759Z,99403.66
2023-02-23T05:23:03.693Z,99400.66
2023-02-23T05:25:30.602Z,99402.59
2023-02-23T05:27:57.515Z,99403.84
2023-02-23T05:30:24.414Z,99407.09
2023-02-23T05:32:51.215Z,99409.16
2023-02-23T05:35:19.469Z,99411.22
2023-02-23T05:37:46.394Z,99412.22
2023-02-23T05:40:14.239Z,99415.66
2023-02-23T05:42:41.445Z,99417.28
2023-02-23T05:45:08.646Z,99417.63
2023-02-23T05:47:35.411Z,99415.78
2023-02-23T05:50:03.427Z,99417.81
2023-02-23T05:52:31.715Z,99408.47
2023-02-23T05:54:58.682Z,99414.47
2023-02-23T05:57:25.585Z,99412.22
2023-02-23T05:59:52.505Z,99417.63
2023-02-23T06:02:19.542Z,99416.78
2023-02-23T06:04:46.313Z,99415.56
2023-02-23T06:07:14.447Z,99424.47
2023-02-23T06:09:44.460Z,99415.97
2023-02-23T06:12:11.490Z,99412.66
2023-02-23T06:14:38.521Z,99421.50
2023-02-23T06:17:05.382Z,99421.97
2023-02-23T06:19:32.221Z,99424.88
2023-02-23T06:21:59.114Z,99426.53
2023-02-23T06:24:26.254Z,99424.25
2023-02-23T06:26:54.357Z,99434.47
2023-02-23T06:29:21.120Z,99425.19
2023-02-23T06:31:48.548Z,99432.44
2023-02-23T06:34:15.407Z,99437.81
2023-02-23T06:36:43.017Z,99435.50
2023-02-23T06:39:11.762Z,99437.31
2023-02-23T06:41:38.630Z,99443.06
2023-02-23T06:44:07.020Z,99444.25
2023-02-23T06:46:33.872Z,99448.38
2023-02-23T06:49:02.158Z,99446.88
2023-02-23T06:51:29.080Z,99450.44
2023-02-23T06:53:55.901Z,99448.97
2023-02-23T06:56:22.820Z,99447.09
2023-02-23T06:58:49.719Z,99454.59
2023-02-23T07:01:18.038Z,99449.47
2023-02-23T07:03:44.952Z,99457.59
2023-02-23T07:06:11.760Z,99459.63
2023-02-23T07:08:41.591Z,99465.00
2023-02-23T07:11:11.544Z,99461.00
2023-02-23T07:13:40.158Z,99466.78
2023-02-23T07:16:08.329Z,99477.50
2023-02-23T07:18:36.543Z,99459.88
2023-02-23T07:21:03.476Z,99468.94
2023-02-23T07:23:30.181Z,99479.53
2023-02-23T07:25:57.018Z,99466.41
2023-02-23T07:28:24.372Z,99473.88
2023-02-23T07:30:51.401Z,99479.81
2023-02-23T07:33:18.179Z,99475.19
2023-02-23T07:35:46.281Z,99479.13
2023-02-23T07:38:13.302Z,99479.16
2023-02-23T07:40:40.310Z,99474.31
2023-02-23T07:43:07.566Z,99483.34
2023-02-23T07:45:34.527Z,99486.34
2023-02-23T07:48:01.791Z,99482.53
2023-02-23T07:50:28.831Z,99487.22
2023-02-23T07:52:57.071Z,99488.38
2023-02-23T07:55:23.864Z,99492.00
2023-02-23T07:57:51.809Z,99484.25
2023-02-23T08:00:19.777Z,99483.31
2023-02-23T08:02:54.960Z,99487.00
2023-02-23T08:05:22.317Z,99488.63
2023-02-23T08:07:49.352Z,99493.69
2023-02-23T08:10:18.450Z,99497.19
2023-02-23T08:12:45.416Z,99492.66
2023-02-23T08:15:12.273Z,99484.53
2023-02-23T08:17:40.376Z,99496.38
2023-02-23T08:20:11.996Z,99493.59
2023-02-23T08:22:49.016Z,99493.41
2023-02-23T08:25:18.197Z,99495.47
2023-02-23T08:27:45.280Z,99499.63
2023-02-23T08:30:13.802Z,99503.06
2023-02-23T08:32:43.628Z,99495.16
2023-02-23T08:35:11.557Z,99504.88
2023-02-23T08:37:38.337Z,99498.06
2023-02-23T08:40:06.716Z,99510.06
2023-02-23T08:42:35.052Z,99499.91
2023-02-23T08:45:02.386Z,99498.59
2023-02-23T08:47:30.332Z,99501.56
2023-02-23T08:49:58.282Z,99505.59
2023-02-23T08:52:25.136Z,99506.25
2023-02-23T08:54:52.763Z,99509.16
2023-02-23T08:57:19.529Z,99510.53
2023-02-23T08:59:47.710Z,99506.72
2023-02-23T09:02:15.606Z,99505.88
2023-02-23T09:04:42.593Z,99507.56
2023-02-23T09:07:16.078Z,99509.53
2023-02-23T09:09:43.650Z,99505.16
2023-02-23T09:12:12.631Z,99508.38
2023-02-23T09:14:39.316Z,99500.28
2023-02-23T09:17:07.667Z,99503.50
2023-02-23T09:19:34.406Z,99498.88
2023-02-23T09:22:01.512Z,99502.66
2023-02-23T09:24:28.318Z,99506.22
2023-02-23T09:26:55.422Z,99503.22
2023-02-23T09:29:22.429Z,99502.16
2023-02-23T09:31:49.744Z,99498.22
2023-02-23T09:34:18.025Z,99498.50
2023-02-23T09:36:45.096Z,99497.75
2023-02-23T09:39:11.912Z,99503.09
2023-02-23T09:42:10.173Z,99496.31
2023-02-23T09:44:54.305Z,99499.94
2023-02-23T09:47:36.945Z,99498.28
2023-02-23T09:50:20.346Z,99495.94
2023-02-23T09:52:56.407Z,99491.53
2023-02-23T09:55:26.790Z,99485.84
2023-02-23T09:57:57.988Z,99488.88
2023-02-23T10:00:27.208Z,99487.66
2023-02-23T10:03:16.541Z,99494.25
2023-02-23T10:05:54.726Z,99494.22
2023-02-23T10:08:39.049Z,99493.78
2023-02-23T10:11:21.287Z,99493.19
2023-02-23T10:14:04.327Z,99492.47
2023-02-23T10:16:45.186Z,99498.25
2023-02-23T10:19:24.937Z,99496.22
2023-02-23T10:21:59.094Z,99489.13
2023-02-23T10:24:33.650Z,99491.84
2023-02-23T10:27:10.775Z,99492.91
2023-02-23T10:29:46.208Z,99496.50
2023-02-23T10:32:23.362Z,99495.19
2023-02-23T10:34:55.394Z,99493.00
2023-02-23T10:37:25.757Z,99486.34
2023-02-23T10:39:54.254Z,99485.59
2023-02-23T10:42:27.574Z,99494.44
2023-02-23T10:44:56.823Z,99492.34
2023-02-23T10:47:29.924Z,99497.84
2023-02-23T10:49:58.866Z,99490.56
2023-02-23T10:52:42.276Z,99492.69
2023-02-23T10:55:25.312Z,99494.31
2023-02-23T10:58:09.815Z,99489.13
2023-02-23T11:00:40.191Z,99487.47
2023-02-23T11:03:32.980Z,99489.38
2023-02-23T11:06:00.779Z,99490.78
2023-02-23T11:08:33.970Z,99491.38
2023-02-23T11:11:24.032Z,99497.66
2023-02-23T11:13:52.174Z,99484.16
2023-02-23T11:19:21.189Z,99488.00
2023-02-23T11:21:52.625Z,99472.84
2023-02-23T11:24:26.465Z,99482.47
2023-02-23T11:26:57.615Z,99476.94
2023-02-23T11:29:32.109Z,99478.31
2023-02-23T11:32:06.804Z,99475.16
2023-02-23T11:34:41.568Z,99477.28
2023-02-23T11:37:24.406Z,99471.97
2023-02-23T11:43:38.159Z,99463.97
2023-02-23T11:46:17.663Z,99460.34
2023-02-23T11:48:52.435Z,99461.22
2023-02-23T11:51:31.745Z,99468.06
2023-02-23T11:54:00.917Z,99456.78
2023-02-23T11:56:34.135Z,99464.56
2023-02-23T11:59:06.609Z,99458.09
2023-02-23T12:01:47.261Z,99456.06
2023-02-23T12:04:28.625Z,99458.16
2023-02-23T12:07:25.548Z,99461.75
2023-02-23T12:10:06.602Z,99447.91
2023-02-23T12:12:49.342Z,99445.19
2023-02-23T12:15:32.812Z,99445.19
2023-02-23T12:18:12.103Z,99443.28
2023-02-23T12:20:45.884Z,99442.91
2023-02-23T12:23:21.761Z,99440.56
2023-02-23T12:25:56.740Z,99440.31
2023-02-23T12:28:33.935Z,99445.84
2023-02-23T12:31:13.706Z,99441.22
2023-02-23T12:33:48.315Z,99436.78
2023-02-23T12:36:38.898Z,99428.31
2023-02-23T12:39:21.068Z,99435.13
2023-02-23T12:41:58.736Z,99434.31
2023-02-23T12:44:56.889Z,99427.78
2023-02-23T12:47:40.261Z,99425.25
2023-02-23T12:50:28.047Z,99433.66
2023-02-23T12:53:07.884Z,99424.13
2023-02-23T12:55:50.619Z,99428.94
2023-02-23T12:58:33.614Z,99425.63
2023-02-23T13:01:13.306Z,99421.50
2023-02-23T13:04:26.781Z,99422.91
2023-02-23T13:07:26.639Z,99414.34
2023-02-23T13:10:14.384Z,99421.03
2023-02-23T13:12:57.025Z,99420.97
2023-02-23T13:15:44.120Z,99417.44
2023-02-23T13:18:24.335Z,99419.06
2023-02-23T13:21:02.378Z,99421.28
2023-02-23T13:23:41.811Z,99419.66
2023-02-23T13:26:27.932Z,99421.53
2023-02-23T13:29:05.257Z,99413.03
2023-02-23T13:31:38.094Z,99414.22
2023-02-23T13:34:16.877Z,99410.41
2023-02-23T13:36:45.182Z,99414.28
2023-02-23T13:39:47.484Z,99409.06
2023-02-23T13:42:39.977Z,99408.94
2023-02-23T13:45:31.609Z,99406.88
2023-02-23T13:48:13.339Z,99408.78
2023-02-23T13:50:52.530Z,99410.19
2023-02-23T13:53:37.599Z,99404.75
2023-02-23T13:56:08.659Z,99411.50
2023-02-23T13:58:37.211Z,99396.34
2023-02-23T14:01:14.182Z,99397.53
2023-02-23T14:03:52.029Z,99396.34
2023-02-23T14:06:29.159Z,99397.09
2023-02-23T14:09:00.489Z,99394.13
2023-02-23T14:11:49.014Z,99396.59
2023-02-23T14:14:42.029Z,99384.22
2023-02-23T14:18:01.867Z,99388.38
2023-02-23T14:20:52.052Z,99397.66
2023-02-23T14:23:52.625Z,99387.91
2023-02-23T14:26:44.280Z,99393.47
2023-02-23T14:29:28.958Z,99385.03
2023-02-23T14:32:29.405Z,99397.13
2023-02-23T14:34:59.404Z,99392.56
2023-02-23T14:37:34.306Z,99391.63
2023-02-23T14:40:12.394Z,99393.06
2023-02-23T14:42:40.670Z,99393.41
2023-02-23T14:45:21.939Z,99382.06
2023-02-23T14:47:51.779Z,99387.00
2023-02-23T14:50:27.134Z,99385.13
2023-02-23T14:52:57.068Z,99391.00
2023-02-23T14:55:29.234Z,99390.75
2023-02-23T14:57:57.333Z,99390.09
2023-02-23T15:01:01.035Z,99382.16
2023-02-23T15:04:51.617Z,99377.91
2023-02-23T15:08:12.667Z,99386.25
2023-02-23T15:11:29.173Z,99392.19
2023-02-23T15:13:59.189Z,99395.00
2023-02-23T15:16:32.997Z,99387.84
2023-02-23T15:19:04.888Z,99395.03
2023-02-23T15:21:31.809Z,99396.69
2023-02-23T15:24:07.542Z,99402.72
2023-02-23T15:26:38.566Z,99400.22
2023-02-23T15:29:11.967Z,99400.22
2023-02-23T15:31:39.038Z,99396.44
2023-02-23T15:34:09.144Z,99395.34
2023-02-23T15:36:39.657Z,99392.63
2023-02-23T15:39:16.025Z,99389.91
2023-02-23T15:41:49.156Z,99390.41
2023-02-23T15:44:24.148Z,99393.47
2023-02-23T15:46:55.899Z,99393.13
2023-02-23T15:49:29.230Z,99401.28
2023-02-23T15:52:01.966Z,99393.88
2023-02-23T15:54:34.160Z,99405.72
2023-02-23T15:57:08.717Z,99394.56
2023-02-23T15:59:39.274Z,99393.97
2023-02-23T16:02:16.388Z,99393.72
2023-02-23T16:04:43.843Z,99401.88
2023-02-23T16:07:19.473Z,99396.09
2023-02-23T16:09:53.509Z,99403.19
2023-02-23T16:12:29.011Z,99402.63
2023-02-23T16:15:00.310Z,99406.06
2023-02-23T16:17:35.231Z,99399.81
2023-02-23T16:20:16.370Z,99403.59
2023-02-23T16:22:45.921Z,99405.47
2023-02-23T16:25:17.970Z,99402.44
2023-02-23T16:28:02.595Z,99402.69
2023-02-23T16:30:40.709Z,99399.41
2023-02-23T16:33:16.708Z,99399.28
2023-02-23T16:35:47.741Z,99406.06
2023-02-23T16:38:24.963Z,99399.97
2023-02-23T16:40:52.282Z,99402.81
2023-02-23T16:43:20.703Z,99407.94
2023-02-23T16:45:47.655Z,99406.75
2023-02-23T16:48:15.908Z,99407.47
2023-02-23T16:50:44.138Z,99403.84
2023-02-23T16:53:12.282Z,99405.16
2023-02-23T16:55:46.589Z,99404.31
2023-02-23T16:58:19.550Z,99403.16
2023-02-23T17:00:47.926Z,99405.06
2023-02-23T17:03:20.064Z,99408.00
2023-02-23T17:05:47.133Z,99410.97
2023-02-23T17:08:13.928Z,99407.91
2023-02-23T17:10:48.719Z,99404.88
2023-02-23T17:13:19.491Z,99407.47
2023-02-23T17:15:50.866Z,99421.53
2023-02-23T17:18:18.545Z,99412.81
2023-02-23T17:20:45.783Z,99421.22
2023-02-23T17:23:18.323Z,99420.03
2023-02-23T17:25:45.968Z,99418.63
2023-02-23T17:28:15.843Z,99414.75
2023-02-23T17:30:43.772Z,99417.34
2023-02-23T17:33:14.583Z,99424.91
2023-02-23T17:35:41.974Z,99424.22
2023-02-23T17:38:10.337Z,99420.50
2023-02-23T17:40:37.475Z,99423.94
2023-02-23T17:43:07.181Z,99427.31
2023-02-23T17:45:34.073Z,99436.13
2023-02-23T17:48:01.210Z,99438.78
2023-02-23T17:50:29.772Z,99436.88
2023-02-23T17:52:57.822Z,99441.91
2023-02-23T17:55:25.539Z,99444.16
2023-02-23T17:57:52.683Z,99441.78
2023-02-23T18:00:20.723Z,99437.34
2023-02-23T18:02:47.700Z,99438.06
2023-02-23T18:05:16.615Z,99445.13
2023-02-23T18:07:48.065Z,99441.38
2023-02-23T18:10:15.740Z,99443.97
2023-02-23T18:12:42.796Z,99435.97
2023-02-23T18:15:10.621Z,99438.91
2023-02-23T18:17:37.370Z,99444.22
2023-02-23T18:20:06.768Z,99445.97
2023-02-23T18:22:33.848Z,99442.88
2023-02-23T18:25:04.614Z,99443.06
2023-02-23T18:27:31.412Z,99439.41
2023-02-23T18:29:58.189Z,99440.41
2023-02-23T18:32:25.422Z,99439.66
2023-02-23T18:34:52.270Z,99449.06
2023-02-23T18:37:19.353Z,99434.72
2023-02-23T18:39:46.272Z,99446.84
2023-02-23T18:42:15.723Z,99440.47
2023-02-23T18:44:42.565Z,99435.16
2023-02-23T18:47:09.468Z,99435.28
2023-02-23T18:49:36.306Z,99434.50
2023-02-23T18:52:03.264Z,99440.47
2023-02-23T18:54:30.102Z,99443.47
2023-02-23T18:56:57.503Z,99428.28
2023-02-23T18:59:25.969Z,99434.28
2023-02-23T19:01:53.017Z,99436.41
2023-02-23T19:04:20.654Z,99431.88
2023-02-23T19:06:48.409Z,99428.06
2023-02-23T19:09:15.654Z,99430.81
2023-02-23T19:11:43.356Z,99428.78
2023-02-23T19:14:14.574Z,99427.06
2023-02-23T19:16:44.375Z,99420.44
2023-02-23T19:19:11.768Z,99428.72
2023-02-23T19:21:39.666Z,99425.50
2023-02-23T19:24:07.877Z,99431.81
2023-02-23T19:26:36.643Z,99427.53
2023-02-23T19:29:03.567Z,99431.59
2023-02-23T19:31:30.646Z,99425.75
2023-02-23T19:33:59.063Z,99429.06
2023-02-23T19:36:28.531Z,99424.97
2023-02-23T19:38:58.492Z,99435.78
2023-02-23T19:41:28.053Z,99429.03
2023-02-23T19:43:55.282Z,99428.78
2023-02-23T19:46:22.245Z,99430.03
2023-02-23T19:48:49.310Z,99439.66
2023-02-23T19:51:17.931Z,99436.16
2023-02-23T19:53:45.035Z,99435.28
2023-02-23T19:56:14.876Z,99432.94
2023-02-23T19:58:42.220Z,99429.03
2023-02-23T20:01:12.381Z,99436.69
2023-02-23T20:03:39.843Z,99435.72
2023-02-23T20:06:08.150Z,99434.19
2023-02-23T20:08:36.256Z,99440.13
2023-02-23T20:11:06.026Z,99435.69
2023-02-23T20:13:33.351Z,99429.00
2023-02-23T20:16:01.783Z,99444.78
2023-02-23T20:18:28.834Z,99428.53
2023-02-23T20:20:55.779Z,99435.06
2023-02-23T20:23:22.565Z,99430.56
2023-02-23T20:25:50.910Z,99437.66
2023-02-23T20:28:17.715Z,99421.53
2023-02-23T20:30:46.433Z,99418.03
2023-02-23T20:33:13.733Z,99422.78
2023-02-23T20:35:41.620Z,99417.09
2023-02-23T20:38:08.666Z,99423.00
2023-02-23T20:40:35.985Z,99430.16
2023-02-23T20:43:04.341Z,99426.28
2023-02-23T20:45:31.145Z,99432.25
2023-02-23T20:47:58.024Z,99422.81
2023-02-23T20:50:27.262Z,99424.97
2023-02-23T20:52:54.762Z,99420.41
2023-02-23T20:55:21.573Z,99420.59
2023-02-23T20:57:48.390Z,99424.59
2023-02-23T21:00:18.103Z,99422.91
2023-02-23T21:02:45.222Z,99427.59
2023-02-23T21:05:12.061Z,99423.50
2023-02-23T21:07:39.394Z,99425.28
2023-02-23T21:10:08.071Z,99421.09
2023-02-23T21:12:35.848Z,99424.13
2023-02-23T21:15:04.112Z,99420.88
2023-02-23T21:17:34.158Z,99421.28
2023-02-23T21:20:01.462Z,99423.25
2023-02-23T21:22:28.534Z,99428.31
2023-02-23T21:24:55.370Z,99429.72
2023-02-23T21:27:22.121Z,99431.09
2023-02-23T21:29:49.490Z,99430.22
2023-02-23T21:32:16.530Z,99431.97
2023-02-23T21:34:44.725Z,99430.47
2023-02-23T21:37:11.615Z,99431.97
2023-02-23T21:39:38.447Z,99423.69
2023-02-23T21:42:05.364Z,99426.84
2023-02-23T21:44:32.548Z,99426.22
2023-02-23T21:46:59.386Z,99430.72
2023-02-23T21:49:26.850Z,99423.38
2023-02-23T21:51:54.996Z,99420.84
2023-02-23T21:54:24.055Z,99421.16
2023-02-23T21:56:50.886Z,99419.25
2023-02-23T21:59:17.636Z,99415.66
2023-02-23T22:01:44.504Z,99416.78
2023-02-23T22:04:14.264Z,99424.03
2023-02-23T22:06:44.155Z,99416.75
2023-02-23T22:09:13.175Z,99415.25
2023-02-23T22:11:45.340Z,99423.75
2023-02-23T22:14:12.969Z,99422.94
2023-02-23T22:16:40.516Z,99416.66
2023-02-23T22:19:08.114Z,99421.66
2023-02-23T22:21:38.196Z,99414.31
2023-02-23T22:24:06.626Z,99420.81
2023-02-23T22:26:37.232Z,99408.75
2023-02-23T22:29:05.372Z,99414.59
2023-02-23T22:31:32.550Z,99409.81
2023-02-23T22:33:59.465Z,99417.03
2023-02-23T22:36:26.338Z,99406.56
2023-02-23T22:38:57.984Z,99410.75
2023-02-23T22:41:24.959Z,99421.25
2023-02-23T22:43:53.070Z,99415.72
2023-02-23T22:46:19.929Z,99405.84
2023-02-23T22:48:46.836Z,99413.44
2023-02-23T22:51:16.959Z,99407.00
2023-02-23T22:53:43.945Z,99406.91
2023-02-23T22:56:11.323Z,99410.22
2023-02-23T22:58:38.102Z,99413.84
2023-02-23T23:01:06.514Z,99406.06
2023-02-23T23:03:38.102Z,99411.47
2023-02-23T23:06:07.720Z,99407.97
2023-02-23T23:08:38.759Z,99405.56
2023-02-23T23:11:08.387Z,99406.31
2023-02-23T23:13:38.570Z,99401.13
2023-02-23T23:16:09.289Z,99400.56
2023-02-23T23:18:37.658Z,99398.84
2023-02-23T23:21:04.823Z,99391.22
2023-02-23T23:23:31.699Z,99385.59
2023-02-23T23:25:58.447Z,99384.72
2023-02-23T23:28:25.262Z,99379.94
2023-02-23T23:30:52.022Z,99381.34
2023-02-23T23:33:20.245Z,99390.16
2023-02-23T23:35:46.981Z,99385.47
2023-02-23T23:38:13.787Z,99381.44
2023-02-23T23:40:40.567Z,99382.19
2023-02-23T23:43:07.514Z,99370.72
2023-02-23T23:45:34.470Z,99375.06
2023-02-23T23:48:01.421Z,99363.50
2023-02-23T23:50:29.529Z,99369.09
2023-02-23T23:52:56.281Z,99358.69
2023-02-23T23:55:23.071Z,99361.06
2023-02-23T23:57:49.863Z,99367.50
